Time;durP1;ratioP1;P1;durP2;ratioP2;P2;SDS_P1;SDS_P2;PMS_P1;PMS_P2;Temp;Humidity;BMP_temperature;BMP_pressure;BME280_temperature;BME280_humidity;BME280_pressure;Samples;Min_cycle;Max_cycle;Signal;HPM_P1;HPM_P2
2022/02/28 00:01:40;;;;;;;8.13;3.15;;;;;;;1.55;68.12;101844.05;1754091;82;21653;-63
2022/02/28 00:04:11;;;;;;;7.92;3.35;;;;;;;1.57;68.11;101846.16;1754058;82;21122;-62
2022/02/28 00:06:41;;;;;;;6.12;2.40;;;;;;;1.62;68.08;101851.73;1754007;82;21158;-62
2022/02/28 00:09:10;;;;;;;7.42;3.10;;;;;;;1.64;68.00;101856.55;1754164;82;21165;-62
2022/02/28 00:11:38;;;;;;;7.80;2.47;;;;;;;1.65;67.89;101853.73;1754394;82;21161;-62
2022/02/28 00:14:08;;;;;;;7.22;2.70;;;;;;;1.68;67.86;101860.77;1753934;82;21098;-61
2022/02/28 00:16:37;;;;;;;5.33;2.72;;;;;;;1.71;67.84;101855.16;1754105;82;21569;-62
2022/02/28 00:19:06;;;;;;;6.62;2.85;;;;;;;1.74;67.74;101857.66;1741590;82;21159;-63
2022/02/28 00:21:37;;;;;;;6.87;2.58;;;;;;;1.75;67.70;101858.03;1806504;79;21547;-64
2022/02/28 00:24:08;;;;;;;8.58;3.00;;;;;;;1.78;67.66;101851.06;1738115;82;21158;-61
2022/02/28 00:26:37;;;;;;;5.67;2.65;;;;;;;1.76;67.59;101863.81;1807213;79;21297;-62
2022/02/28 00:29:06;;;;;;;6.62;3.20;;;;;;;1.78;67.53;101863.22;1738008;82;21163;-61
2022/02/28 00:31:35;;;;;;;6.65;2.58;;;;;;;1.77;67.42;101866.90;1806095;79;21126;-62
2022/02/28 00:34:05;;;;;;;8.85;2.92;;;;;;;1.78;67.37;101864.09;1737444;82;21182;-63
2022/02/28 00:36:37;;;;;;;5.25;2.85;;;;;;;1.75;67.36;101867.48;1806412;79;21130;-62
2022/02/28 00:39:06;;;;;;;4.60;2.80;;;;;;;1.68;67.33;101867.04;1737836;82;22180;-61
2022/02/28 00:41:34;;;;;;;9.20;3.00;;;;;;;1.63;67.49;101858.87;1806391;79;21127;-64
2022/02/28 00:44:05;;;;;;;8.38;3.15;;;;;;;1.63;67.64;101857.52;1737791;82;21369;-62
2022/02/28 00:46:35;;;;;;;5.92;2.98;;;;;;;1.64;67.61;101861.95;1806188;79;21154;-61
2022/02/28 00:49:04;;;;;;;6.87;3.02;;;;;;;1.63;67.52;101857.03;1737582;82;21163;-62
2022/02/28 00:51:33;;;;;;;10.82;3.20;;;;;;;1.62;67.51;101862.54;1806254;79;21577;-62
2022/02/28 00:54:02;;;;;;;6.55;2.90;;;;;;;1.57;67.59;101863.72;1806173;79;21555;-63
2022/02/28 00:56:31;;;;;;;8.30;2.87;;;;;;;1.57;67.61;101853.40;1737633;82;21234;-61
2022/02/28 00:59:01;;;;;;;8.08;2.75;;;;;;;1.56;67.53;101857.94;1806379;79;21518;-61
2022/02/28 01:01:33;;;;;;;6.35;3.10;;;;;;;1.55;67.55;101862.09;1737683;82;21179;-62
2022/02/28 01:04:04;;;;;;;6.42;2.75;;;;;;;1.51;67.47;101868.19;1806448;79;21138;-62
2022/02/28 01:06:33;;;;;;;7.53;3.22;;;;;;;1.45;67.43;101868.60;1737473;82;21690;-62
2022/02/28 01:09:03;;;;;;;6.78;3.22;;;;;;;1.42;67.47;101869.29;1806331;79;21139;-62
2022/02/28 01:11:31;;;;;;;7.78;3.17;;;;;;;1.39;67.47;101867.66;1737698;82;21632;-61
2022/02/28 01:14:01;;;;;;;4.97;2.90;;;;;;;1.35;67.60;101866.14;1806526;79;21147;-61
2022/02/28 01:16:29;;;;;;;8.98;3.15;;;;;;;1.37;67.63;101864.68;1737870;82;21630;-62
2022/02/28 01:18:58;;;;;;;10.00;3.25;;;;;;;1.34;67.57;101868.45;1811040;79;21182;-61
2022/02/28 01:21:27;;;;;;;7.17;3.20;;;;;;;1.32;67.64;101866.34;1745536;82;21131;-62
2022/02/28 01:23:58;;;;;;;7.58;2.92;;;;;;;1.31;67.63;101854.30;1814766;79;21189;-62
2022/02/28 01:26:26;;;;;;;6.97;2.90;;;;;;;1.27;67.56;101855.81;1745755;82;21118;-62
2022/02/28 01:28:55;;;;;;;7.20;3.20;;;;;;;1.24;67.53;101851.97;1814903;79;21249;-61
2022/02/28 01:31:24;;;;;;;7.10;2.72;;;;;;;1.23;67.55;101854.77;1745685;82;21179;-62
2022/02/28 01:33:54;;;;;;;7.58;3.00;;;;;;;1.23;67.52;101862.39;1814711;79;21284;-61
2022/02/28 01:36:23;;;;;;;7.15;3.33;;;;;;;1.21;67.50;101849.47;1745550;82;21273;-63
2022/02/28 01:38:51;;;;;;;7.85;2.92;;;;;;;1.20;67.49;101853.63;1814837;79;21518;-62
2022/02/28 01:41:21;;;;;;;6.70;2.85;;;;;;;1.16;67.46;101861.06;1815024;79;21343;-61
2022/02/28 01:43:50;;;;;;;7.40;3.55;;;;;;;1.13;67.56;101857.22;1745680;82;21602;-62
2022/02/28 01:46:18;;;;;;;7.55;2.95;;;;;;;1.11;67.56;101867.73;1814780;79;21146;-62
2022/02/28 01:48:47;;;;;;;4.85;2.87;;;;;;;1.06;67.63;101872.56;1745551;82;21574;-61
2022/02/28 01:51:16;;;;;;;6.25;2.83;;;;;;;1.01;67.74;101870.17;1814807;79;21159;-62
2022/02/28 01:53:50;;;;;;;13.13;3.80;;;;;;;0.99;67.90;101872.58;1745462;82;21166;-62
2022/02/28 01:56:21;;;;;;;8.43;2.87;;;;;;;0.98;67.99;101867.67;1814786;79;21222;-62
2022/02/28 01:58:49;;;;;;;10.48;3.37;;;;;;;0.99;68.06;101868.53;1745539;82;21144;-61
2022/02/28 02:01:18;;;;;;;9.33;3.45;;;;;;;0.99;68.23;101872.58;1814758;79;21577;-62
2022/02/28 02:03:49;;;;;;;7.95;3.65;;;;;;;0.97;68.39;101863.72;1745627;82;21606;-62
2022/02/28 02:06:20;;;;;;;7.15;3.15;;;;;;;0.94;68.52;101859.39;1815159;79;21534;-62
2022/02/28 02:08:51;;;;;;;7.53;2.98;;;;;;;0.92;68.72;101861.33;1814689;79;21150;-61
2022/02/28 02:11:20;;;;;;;8.50;2.70;;;;;;;0.90;68.96;101872.70;1783120;79;21228;-62
2022/02/28 02:13:50;;;;;;;8.65;3.08;;;;;;;0.82;69.19;101869.15;1745577;82;21103;-63
2022/02/28 02:16:19;;;;;;;6.80;3.15;;;;;;;0.76;69.44;101871.38;1814652;79;21154;-62
2022/02/28 02:18:48;;;;;;;7.15;3.25;;;;;;;0.70;69.69;101881.21;1784044;79;21115;-62
2022/02/28 02:21:19;;;;;;;6.85;2.95;;;;;;;0.67;69.88;101878.23;1747767;82;21598;-62
2022/02/28 02:23:49;;;;;;;6.03;3.00;;;;;;;0.67;70.03;101885.45;1817042;79;21087;-61
2022/02/28 02:26:20;;;;;;;8.48;3.12;;;;;;;0.67;70.16;101884.97;1747631;82;21194;-61
2022/02/28 02:28:50;;;;;;;7.17;2.80;;;;;;;0.64;70.21;101885.13;1817288;79;21542;-62
2022/02/28 02:31:18;;;;;;;6.90;3.08;;;;;;;0.59;70.31;101888.60;1747654;82;21677;-62
2022/02/28 02:33:49;;;;;;;7.45;3.20;;;;;;;0.58;70.48;101891.78;1785558;79;21234;-62
2022/02/28 02:36:18;;;;;;;5.55;2.20;;;;;;;0.57;70.60;101886.00;1719499;82;21677;-62
2022/02/28 02:38:47;;;;;;;7.75;2.95;;;;;;;0.53;70.67;101890.34;1817035;79;21205;-61
2022/02/28 02:41:16;;;;;;;5.85;2.58;;;;;;;0.48;70.83;101888.41;1748058;82;21583;-62
2022/02/28 02:43:45;;;;;;;7.47;2.40;;;;;;;0.44;70.99;101894.48;1816924;79;21261;-63
2022/02/28 02:46:15;;;;;;;4.70;2.35;;;;;;;0.46;71.15;101887.16;1785477;79;21620;-62
2022/02/28 02:48:45;;;;;;;6.90;2.77;;;;;;;0.48;71.20;101893.81;1747591;82;21242;-61
2022/02/28 02:51:17;;;;;;;6.22;2.62;;;;;;;0.49;71.19;101888.80;1817420;79;21627;-61
2022/02/28 02:53:46;;;;;;;4.72;2.30;;;;;;;0.50;71.16;101891.41;1816954;79;21716;-61
2022/02/28 02:56:19;;;;;;;5.87;2.40;;;;;;;0.49;71.18;101882.06;1747771;82;21158;-63
2022/02/28 02:58:48;;;;;;;4.83;2.33;;;;;;;0.46;71.30;101880.91;1816906;79;21562;-61
2022/02/28 03:01:19;;;;;;;4.83;2.27;;;;;;;0.46;71.31;101880.91;1785517;79;21269;-62
2022/02/28 03:03:48;;;;;;;5.62;2.47;;;;;;;0.44;71.31;101878.78;1747560;82;21229;-61
2022/02/28 03:06:16;;;;;;;4.90;1.90;;;;;;;0.47;71.33;101882.64;1817475;79;21569;-61
2022/02/28 03:08:47;;;;;;;4.40;2.50;;;;;;;0.43;71.30;101881.97;1747853;82;21174;-62
2022/02/28 03:11:15;;;;;;;3.77;1.98;;;;;;;0.39;71.35;101884.95;1817025;79;21605;-61
2022/02/28 03:13:44;;;;;;;5.70;2.25;;;;;;;0.34;71.51;101884.37;1747801;82;21477;-62
2022/02/28 03:16:13;;;;;;;6.08;2.30;;;;;;;0.28;71.59;101874.84;1817017;79;21181;-62
2022/02/28 03:18:42;;;;;;;5.85;2.20;;;;;;;0.27;71.75;101878.02;1779169;80;21246;-62
2022/02/28 03:21:11;;;;;;;4.92;2.50;;;;;;;0.29;71.79;101886.88;1782833;79;21515;-61
2022/02/28 03:23:41;;;;;;;6.30;2.55;;;;;;;0.30;71.79;101883.22;1783062;80;21559;-62
2022/02/28 03:26:11;;;;;;;9.00;2.42;;;;;;;0.31;71.79;101878.69;1782785;80;21558;-62
2022/02/28 03:28:42;;;;;;;4.25;2.37;;;;;;;0.30;71.79;101879.65;1782930;80;21120;-62
2022/02/28 03:36:51;;;;;;;4.85;1.92;;;;;;;0.24;71.80;101876.86;1830868;77;22184;-61
2022/02/28 03:39:23;;;;;;;5.17;2.40;;;;;;;0.15;71.87;101880.60;1789210;80;21600;-61
2022/02/28 03:41:53;;;;;;;4.87;2.20;;;;;;;0.17;71.95;101879.55;1788731;80;21549;-62
2022/02/28 03:44:24;;;;;;;4.42;2.20;;;;;;;0.15;71.78;101881.47;1788787;79;21131;-62
2022/02/28 03:46:55;;;;;;;6.50;2.15;;;;;;;0.15;71.86;101884.64;1788475;79;21111;-63
2022/02/28 03:49:26;;;;;;;4.05;2.02;;;;;;;0.15;71.78;101873.38;1788759;80;21589;-61
2022/02/28 03:52:04;;;;;;;5.40;2.02;;;;;;;0.15;71.70;101875.21;1788339;80;21111;-61
2022/02/28 03:54:46;;;;;;;4.12;2.12;;;;;;;0.12;71.60;101873.57;1773141;80;21162;-62
2022/02/28 03:57:14;;;;;;;5.33;2.37;;;;;;;0.12;71.59;101875.41;1788969;80;21531;-62
2022/02/28 03:59:45;;;;;;;6.65;2.52;;;;;;;0.13;71.57;101879.34;1788566;80;21105;-62
2022/02/28 04:02:13;;;;;;;5.53;1.98;;;;;;;0.13;71.51;101873.95;1788590;80;21126;-62
2022/02/28 04:04:44;;;;;;;5.55;2.30;;;;;;;0.13;71.54;101873.95;1788299;79;21147;-62
2022/02/28 04:07:13;;;;;;;7.03;1.92;;;;;;;0.14;71.40;101874.34;1788787;80;21531;-62
2022/02/28 04:09:42;;;;;;;4.87;2.20;;;;;;;0.12;71.31;101887.05;1788561;80;21245;-63
2022/02/28 04:12:10;;;;;;;3.62;1.98;;;;;;;0.11;71.34;101881.75;1788647;80;21238;-61
2022/02/28 04:14:43;;;;;;;4.80;1.90;;;;;;;0.10;71.28;101885.41;1789100;80;21123;-62
2022/02/28 04:17:13;;;;;;;6.97;2.20;;;;;;;0.06;71.28;101891.95;1788957;80;21503;-62
2022/02/28 04:19:44;;;;;;;5.20;2.00;;;;;;;-0.01;71.36;101893.63;1788577;79;21131;-63
2022/02/28 04:22:15;;;;;;;5.72;2.15;;;;;;;-0.02;71.37;101895.08;1788704;80;21119;-63
2022/02/28 04:24:48;;;;;;;4.07;2.20;;;;;;;-0.04;71.43;101891.13;1788766;80;21822;-62
2022/02/28 04:27:17;;;;;;;3.40;2.00;;;;;;;-0.03;71.40;101894.69;1788947;80;21536;-62
2022/02/28 04:29:48;;;;;;;5.45;2.37;;;;;;;-0.04;71.33;101898.34;1788617;80;21229;-63
2022/02/28 04:32:20;;;;;;;4.80;1.67;;;;;;;-0.09;71.30;101897.27;1787767;80;21150;-62
2022/02/28 04:34:57;;;;;;;4.92;2.15;;;;;;;-0.12;71.42;101901.98;1786896;79;21226;-62
2022/02/28 04:37:26;;;;;;;3.67;1.95;;;;;;;-0.13;71.43;101911.89;1775475;81;21588;-62
2022/02/28 04:39:55;;;;;;;7.45;2.80;;;;;;;-0.12;71.40;101908.71;1775413;81;21648;-62
2022/02/28 04:42:24;;;;;;;4.62;2.25;;;;;;;-0.11;71.36;101910.45;1775397;81;21585;-61
2022/02/28 04:44:53;;;;;;;3.58;2.00;;;;;;;-0.10;71.28;101916.22;1775442;81;21091;-61
2022/02/28 04:47:25;;;;;;;3.67;2.00;;;;;;;-0.11;71.18;101916.70;1775158;81;21532;-63
2022/02/28 04:49:59;;;;;;;4.78;2.37;;;;;;;-0.11;71.15;101921.23;1774833;81;21112;-62
2022/02/28 04:52:28;;;;;;;5.85;2.47;;;;;;;-0.12;71.00;101922.19;1774937;81;21143;-62
2022/02/28 04:54:57;;;;;;;2.85;1.77;;;;;;;-0.15;71.01;101920.54;1774515;81;21587;-61
2022/02/28 04:57:29;;;;;;;4.30;2.08;;;;;;;-0.15;70.92;101925.06;1774881;80;21597;-62
2022/02/28 04:59:58;;;;;;;4.03;2.10;;;;;;;-0.19;70.97;101927.07;1774460;81;21112;-61
2022/02/28 05:02:28;;;;;;;4.40;2.20;;;;;;;-0.20;70.97;101922.64;1774862;81;21726;-61
2022/02/28 05:05:00;;;;;;;5.37;2.10;;;;;;;-0.20;70.97;101920.42;1773363;80;21080;-62
2022/02/28 05:07:30;;;;;;;4.28;2.08;;;;;;;-0.21;70.94;101917.34;1774754;81;21115;-62
2022/02/28 05:10:00;;;;;;;4.35;2.20;;;;;;;-0.25;70.89;101923.88;1774609;81;21175;-62
2022/02/28 05:12:30;;;;;;;5.20;2.00;;;;;;;-0.27;70.83;101925.31;1774389;79;21593;-63
2022/02/28 05:14:59;;;;;;;6.22;2.00;;;;;;;-0.30;70.86;101920.59;1774782;79;21342;-61
2022/02/28 05:17:29;;;;;;;3.98;1.90;;;;;;;-0.33;70.89;101925.20;1774542;79;21179;-62
2022/02/28 05:20:00;;;;;;;5.33;2.00;;;;;;;-0.36;70.92;101930.77;1774593;81;21175;-62
2022/02/28 05:22:31;;;;;;;4.10;2.08;;;;;;;-0.38;71.00;101931.33;1774521;81;21116;-63
2022/02/28 05:25:05;;;;;;;4.45;2.20;;;;;;;-0.36;71.03;101929.89;1774485;81;21143;-62
2022/02/28 05:27:43;;;;;;;5.97;2.00;;;;;;;-0.37;71.01;101932.20;1774603;79;21072;-62
2022/02/28 05:30:13;;;;;;;6.75;2.17;;;;;;;-0.39;71.03;101939.02;1775035;80;21147;-63
2022/02/28 05:32:42;;;;;;;7.40;1.92;;;;;;;-0.38;71.01;101939.41;1774931;81;21115;-63
2022/02/28 05:35:19;;;;;;;4.97;2.15;;;;;;;-0.40;71.00;101937.28;1774187;80;21222;-64
2022/02/28 05:37:59;;;;;;;5.08;2.40;;;;;;;-0.38;71.00;101944.80;1747350;81;21567;-62
2022/02/28 05:40:30;;;;;;;4.15;2.02;;;;;;;-0.40;70.94;101940.45;1774441;81;21535;-62
2022/02/28 05:42:59;;;;;;;7.55;2.50;;;;;;;-0.39;70.88;101948.92;1774526;81;21147;-62
2022/02/28 05:45:35;;;;;;;4.35;1.92;;;;;;;-0.40;70.81;101948.53;1774522;80;21100;-63
2022/02/28 05:48:05;;;;;;;3.75;1.98;;;;;;;-0.41;70.23;101953.05;1773412;80;21186;-61
2022/02/28 05:50:34;;;;;;;3.55;2.15;;;;;;;-0.43;70.13;101959.00;1774599;81;21952;-62
2022/02/28 05:53:03;;;;;;;5.10;1.62;;;;;;;-0.43;70.06;101950.93;1774489;81;21088;-63
2022/02/28 05:55:33;;;;;;;4.28;2.10;;;;;;;-0.43;69.64;101946.89;1774537;81;22062;-62
2022/02/28 05:58:03;;;;;;;5.22;2.00;;;;;;;-0.44;69.39;101953.71;1774695;81;21099;-62
2022/02/28 06:00:33;;;;;;;2.87;1.60;;;;;;;-0.44;69.07;101951.02;1774337;81;21563;-61
2022/02/28 06:03:02;;;;;;;6.15;2.08;;;;;;;-0.43;68.68;101940.64;1774624;81;21527;-63
2022/02/28 06:05:31;;;;;;;2.87;1.65;;;;;;;-0.44;68.17;101942.45;1774477;81;21170;-61
2022/02/28 06:08:00;;;;;;;5.05;1.47;;;;;;;-0.43;67.61;101943.33;1774560;81;21155;-62
2022/02/28 06:10:31;;;;;;;2.02;1.20;;;;;;;-0.45;67.28;101951.50;1774518;81;21124;-62
2022/02/28 06:12:59;;;;;;;4.10;1.60;;;;;;;-0.46;66.73;101953.80;1774729;81;21143;-61
2022/02/28 06:15:30;;;;;;;2.22;1.30;;;;;;;-0.42;66.59;101951.80;1774381;80;21254;-62
2022/02/28 06:18:04;;;;;;;3.83;1.40;;;;;;;-0.41;66.14;101950.36;1774498;81;21091;-62
2022/02/28 06:20:38;;;;;;;4.95;1.30;;;;;;;-0.41;65.99;101955.75;1774752;80;21084;-63
2022/02/28 06:23:10;;;;;;;3.10;1.52;;;;;;;-0.41;65.84;101955.75;1774858;81;21515;-62
2022/02/28 06:25:38;;;;;;;2.83;1.10;;;;;;;-0.39;65.60;101965.08;1774633;81;21163;-62
2022/02/28 06:28:07;;;;;;;2.95;1.37;;;;;;;-0.41;65.47;101968.34;1774785;81;21559;-61
2022/02/28 06:30:38;;;;;;;3.37;1.50;;;;;;;-0.45;65.18;101973.03;1774618;79;21131;-61
2022/02/28 06:33:06;;;;;;;3.72;1.20;;;;;;;-0.42;64.85;101980.94;1774801;81;21115;-62
2022/02/28 06:35:35;;;;;;;3.67;1.30;;;;;;;-0.42;64.66;101990.36;1774520;80;21171;-66
2022/02/28 06:38:09;;;;;;;6.20;1.62;;;;;;;-0.38;64.38;101973.55;1774868;81;21626;-62
2022/02/28 06:40:38;;;;;;;3.67;1.52;;;;;;;-0.37;63.61;101982.02;1774987;80;21111;-63
2022/02/28 06:43:10;;;;;;;3.50;1.72;;;;;;;-0.35;63.50;101979.63;1774591;81;21151;-62
2022/02/28 06:45:40;;;;;;;2.92;1.55;;;;;;;-0.33;63.38;101982.23;1774799;81;21120;-61
2022/02/28 06:48:09;;;;;;;3.20;1.62;;;;;;;-0.34;63.32;101971.94;1774587;81;21119;-62
2022/02/28 06:50:39;;;;;;;3.98;1.55;;;;;;;-0.35;63.26;101980.97;1774704;81;21563;-62
2022/02/28 06:53:08;;;;;;;6.42;1.90;;;;;;;-0.35;63.30;101972.89;1774567;79;21115;-62
2022/02/28 06:55:40;;;;;;;5.20;1.60;;;;;;;-0.34;63.44;101973.28;1774465;81;21575;-61
2022/02/28 06:58:09;;;;;;;8.85;2.27;;;;;;;-0.28;63.58;101980.62;1774680;81;21135;-62
2022/02/28 07:00:38;;;;;;;4.83;1.75;;;;;;;-0.28;63.60;101975.23;1774559;81;21155;-64
2022/02/28 07:03:11;;;;;;;4.33;1.85;;;;;;;-0.29;63.54;101969.45;1774495;80;21556;-63
2022/02/28 07:05:40;;;;;;;3.17;1.60;;;;;;;-0.29;63.66;101984.27;1774772;81;21709;-62
2022/02/28 07:08:09;;;;;;;4.28;1.80;;;;;;;-0.27;63.79;101982.34;1774772;81;21625;-61
2022/02/28 07:10:39;;;;;;;5.12;1.47;;;;;;;-0.26;63.74;101980.05;1774469;81;21544;-62
2022/02/28 07:13:07;;;;;;;3.45;1.75;;;;;;;-0.25;63.69;101992.55;1774631;81;21135;-62
2022/02/28 07:15:36;;;;;;;5.67;1.70;;;;;;;-0.25;63.62;101979.09;1774417;81;21163;-62
2022/02/28 07:18:05;;;;;;;3.85;1.72;;;;;;;-0.25;63.70;101991.21;1764051;81;21567;-62
2022/02/28 07:20:34;;;;;;;4.78;1.90;;;;;;;-0.24;63.56;101988.42;1774483;81;21084;-63
2022/02/28 07:23:04;;;;;;;3.85;1.60;;;;;;;-0.24;63.25;101983.52;1774525;79;21178;-62
2022/02/28 07:25:33;;;;;;;6.92;1.92;;;;;;;-0.24;63.08;101988.42;1774710;81;21147;-62
2022/02/28 07:28:01;;;;;;;4.40;1.85;;;;;;;-0.28;62.63;101973.88;1774757;81;21547;-62
2022/02/28 07:30:31;;;;;;;5.28;2.02;;;;;;;-0.29;62.81;101979.75;1774513;81;21139;-63
2022/02/28 07:33:00;;;;;;;5.97;2.15;;;;;;;-0.30;62.98;101982.05;1774509;79;21139;-63
2022/02/28 07:35:30;;;;;;;6.80;2.15;;;;;;;-0.24;62.97;101979.00;1774347;80;21543;-63
2022/02/28 07:37:59;;;;;;;3.90;1.75;;;;;;;-0.21;62.91;101984.69;1787084;80;21596;-62
2022/02/28 07:40:27;;;;;;;3.80;1.70;;;;;;;-0.18;62.85;101977.77;1788190;80;21162;-63
2022/02/28 07:42:56;;;;;;;7.12;2.10;;;;;;;-0.15;62.38;101979.80;1788287;80;21107;-62
2022/02/28 07:45:25;;;;;;;7.10;2.10;;;;;;;-0.15;62.16;101981.63;1788467;80;21158;-63
2022/02/28 07:47:56;;;;;;;14.93;3.05;;;;;;;-0.14;62.15;101990.10;1788354;80;21154;-62
2022/02/28 07:50:24;;;;;;;4.00;1.77;;;;;;;-0.11;61.75;101993.97;1788159;79;21472;-62
2022/02/28 07:52:53;;;;;;;7.85;1.87;;;;;;;-0.09;61.61;101990.22;1788147;79;21138;-62
2022/02/28 07:55:23;;;;;;;5.05;2.45;;;;;;;-0.09;61.39;101990.70;1788157;80;21288;-65
2022/02/28 07:57:51;;;;;;;6.83;2.50;;;;;;;-0.05;61.53;101985.52;1788240;80;21257;-63
2022/02/28 08:00:22;;;;;;;4.92;2.00;;;;;;;0.02;61.45;101985.58;1788252;80;21139;-63
2022/02/28 08:02:55;;;;;;;4.95;2.10;;;;;;;0.09;61.11;101991.47;1788123;80;21712;-62
2022/02/28 08:05:23;;;;;;;4.03;1.70;;;;;;;0.13;60.82;101987.16;1788161;79;21280;-63
2022/02/28 08:07:54;;;;;;;4.50;1.55;;;;;;;0.34;60.78;101993.55;1788206;80;21269;-62
2022/02/28 08:10:23;;;;;;;3.35;1.52;;;;;;;0.77;60.28;101990.47;1788335;80;21138;-62
2022/02/28 08:12:54;;;;;;;4.67;1.57;;;;;;;1.28;58.99;101982.23;1788195;80;22107;-63
2022/02/28 08:15:23;;;;;;;3.17;1.67;;;;;;;1.74;57.89;101988.22;1788200;80;21677;-62
2022/02/28 08:17:52;;;;;;;2.65;1.67;;;;;;;2.27;56.21;101986.95;1788508;80;21798;-62
2022/02/28 08:20:23;;;;;;;4.00;1.60;;;;;;;2.71;54.93;101984.74;1788386;80;21551;-63
2022/02/28 08:22:52;;;;;;;3.55;1.72;;;;;;;3.17;52.70;101992.28;1788560;80;21609;-63
2022/02/28 08:25:21;;;;;;;11.50;2.12;;;;;;;3.46;52.41;101984.28;1788382;80;21139;-63
2022/02/28 08:27:50;;;;;;;4.03;1.80;;;;;;;3.82;51.79;101979.80;1788349;80;21555;-62
2022/02/28 08:30:19;;;;;;;5.03;1.90;;;;;;;4.16;49.93;101976.78;1788496;80;21640;-62
2022/02/28 08:32:50;;;;;;;6.00;1.90;;;;;;;4.46;49.22;101976.25;1788383;80;21570;-62
2022/02/28 08:35:18;;;;;;;3.72;1.70;;;;;;;4.66;48.35;101979.66;1788336;80;21158;-61
2022/02/28 08:37:52;;;;;;;3.25;1.65;;;;;;;4.81;48.03;101979.44;1788262;80;21594;-63
2022/02/28 08:40:21;;;;;;;3.35;1.60;;;;;;;5.15;46.97;101978.45;1788535;79;21292;-61
2022/02/28 08:42:53;;;;;;;3.25;1.80;;;;;;;5.41;44.76;101969.57;1788333;80;21138;-63
2022/02/28 08:45:22;;;;;;;3.10;1.72;;;;;;;5.37;44.83;101962.16;1788365;80;21099;-61
2022/02/28 08:47:51;;;;;;;13.32;2.72;;;;;;;5.32;44.48;101966.25;1788280;80;21115;-64
2022/02/28 08:50:21;;;;;;;2.47;1.55;;;;;;;5.27;44.15;101965.27;1788327;80;21159;-62
2022/02/28 08:52:50;;;;;;;4.37;1.62;;;;;;;5.21;44.56;101959.47;1788303;80;21253;-62
2022/02/28 08:55:22;;;;;;;5.12;1.92;;;;;;;5.22;43.54;101956.63;1788556;80;21173;-63
2022/02/28 08:57:53;;;;;;;5.25;1.65;;;;;;;5.26;43.55;101964.89;1788287;80;21138;-62
2022/02/28 09:00:23;;;;;;;5.40;1.30;;;;;;;5.14;43.84;101963.14;1788233;80;21151;-63
2022/02/28 09:02:52;;;;;;;3.05;1.40;;;;;;;5.10;43.60;101961.66;1788657;80;21515;-62
2022/02/28 09:05:23;;;;;;;2.45;1.37;;;;;;;4.93;42.64;101961.66;1788320;79;21107;-62
2022/02/28 09:07:53;;;;;;;2.58;1.50;;;;;;;4.69;43.02;101959.05;1788484;79;21816;-63
2022/02/28 09:10:26;;;;;;;5.25;1.42;;;;;;;4.49;43.28;101959.73;1788468;79;21111;-63
2022/02/28 09:12:55;;;;;;;1.77;1.12;;;;;;;4.35;43.47;101961.30;1788483;80;21138;-62
2022/02/28 09:15:27;;;;;;;14.60;1.52;;;;;;;4.27;43.89;101960.54;1788751;80;21115;-62
2022/02/28 09:17:56;;;;;;;3.75;1.10;;;;;;;4.28;44.11;101960.05;1771325;80;21150;-63
2022/02/28 09:20:27;;;;;;;2.62;1.25;;;;;;;4.29;43.53;101958.57;1788186;80;21645;-62
2022/02/28 09:22:56;;;;;;;3.80;1.45;;;;;;;4.22;44.05;101953.73;1788185;80;21115;-63
2022/02/28 09:25:27;;;;;;;3.95;1.50;;;;;;;4.17;43.87;101953.23;1788194;79;22100;-62
2022/02/28 09:27:56;;;;;;;4.53;1.37;;;;;;;4.01;44.10;101950.34;1788609;79;21177;-62
2022/02/28 09:30:27;;;;;;;1.95;1.17;;;;;;;3.89;44.28;101958.02;1788350;80;21083;-63
2022/02/28 09:32:57;;;;;;;1.95;1.30;;;;;;;3.82;44.64;101943.20;1788275;80;21605;-62
2022/02/28 09:35:28;;;;;;;2.00;1.17;;;;;;;3.76;45.10;101935.53;1788531;80;21126;-61
2022/02/28 09:37:58;;;;;;;4.75;1.45;;;;;;;3.74;44.93;101945.63;1787805;80;21322;-62
2022/02/28 09:40:31;;;;;;;3.25;1.27;;;;;;;3.71;45.03;101941.30;1788206;80;21101;-63
2022/02/28 09:43:03;;;;;;;5.67;1.40;;;;;;;3.65;45.49;101923.28;1739052;80;21087;-62
2022/02/28 09:45:52;;;;;;;3.92;1.40;;;;;;;3.62;45.60;101935.71;1788535;80;21566;-63
2022/02/28 09:48:34;;;;;;;10.23;1.90;;;;;;;3.60;45.56;101941.25;1785876;80;21099;-62
2022/02/28 09:51:21;;;;;;;3.60;1.20;;;;;;;3.54;45.91;101935.42;1788773;80;21555;-63
2022/02/28 09:54:10;;;;;;;3.47;1.17;;;;;;;3.54;45.52;101931.36;1716636;82;21591;-63
2022/02/28 09:56:58;;;;;;;2.58;1.30;;;;;;;3.54;45.54;101931.36;1661555;86;21171;-64
2022/02/28 09:59:48;;;;;;;67.17;5.65;;;;;;;3.54;45.56;101928.65;1704363;82;21155;-62
2022/02/28 10:02:17;;;;;;;8.50;1.95;;;;;;;3.55;45.78;101926.31;1661713;86;22149;-62
2022/02/28 10:04:48;;;;;;;4.37;1.52;;;;;;;3.56;46.11;101919.42;1737674;82;21687;-62
2022/02/28 10:07:23;;;;;;;3.58;1.60;;;;;;;3.57;46.39;101914.38;1663199;86;21127;-62
2022/02/28 10:10:05;;;;;;;3.10;1.67;;;;;;;3.57;46.67;101910.31;1737913;82;21230;-63
2022/02/28 10:12:34;;;;;;;2.65;1.55;;;;;;;3.57;46.88;101897.25;1673440;83;21121;-62
2022/02/28 10:15:15;;;;;;;5.53;1.90;;;;;;;3.53;46.99;101890.33;1732323;82;21243;-62
2022/02/28 10:17:58;;;;;;;3.40;1.75;;;;;;;3.50;47.27;101889.58;1721358;83;21130;-63
2022/02/28 10:20:36;;;;;;;3.35;1.57;;;;;;;3.52;47.40;101896.24;1732515;83;21131;-62
2022/02/28 10:23:10;;;;;;;3.77;1.50;;;;;;;3.56;47.36;101890.09;1721271;83;21268;-62
2022/02/28 10:25:57;;;;;;;5.55;1.80;;;;;;;3.57;47.43;101890.47;1732480;82;21805;-63
2022/02/28 10:28:30;;;;;;;2.67;1.40;;;;;;;3.56;47.60;101889.61;1675612;83;21129;-63
2022/02/28 10:31:17;;;;;;;12.07;2.75;;;;;;;3.55;47.73;101889.72;1732295;83;21262;-62
2022/02/28 10:33:55;;;;;;;7.55;1.62;;;;;;;3.54;47.61;101885.28;1721345;83;21225;-63
2022/02/28 10:36:30;;;;;;;5.95;1.72;;;;;;;3.53;47.30;101881.71;1681511;83;21732;-63
2022/02/28 10:39:07;;;;;;;4.75;1.72;;;;;;;3.53;47.33;101877.64;1708521;83;21261;-62
2022/02/28 10:41:37;;;;;;;4.42;1.67;;;;;;;3.53;47.44;101882.20;1763912;81;21151;-63
2022/02/28 10:44:13;;;;;;;3.40;1.65;;;;;;;3.52;47.35;101885.89;1774582;81;21112;-62
2022/02/28 10:46:44;;;;;;;2.10;1.40;;;;;;;3.54;47.27;101871.73;1774907;81;21142;-62
2022/02/28 10:49:24;;;;;;;4.80;1.30;;;;;;;3.58;47.53;101870.52;1774389;80;21488;-62
2022/02/28 10:52:05;;;;;;;2.00;1.30;;;;;;;3.64;47.31;101883.12;1731012;83;21163;-63
2022/02/28 10:54:37;;;;;;;5.10;1.50;;;;;;;3.67;46.99;101880.17;1731229;83;21249;-63
2022/02/28 10:57:15;;;;;;;3.27;1.20;;;;;;;3.66;46.76;101889.28;1730818;83;21170;-61
2022/02/28 10:59:49;;;;;;;3.08;1.10;;;;;;;3.62;46.75;101885.56;1730922;82;21646;-62
2022/02/28 11:02:24;;;;;;;1.77;0.95;;;;;;;3.61;46.88;101877.06;1730888;83;21127;-62
2022/02/28 11:05:18;;;;;;;1.87;0.90;;;;;;;3.62;46.45;101867.46;1731275;83;21273;-62
2022/02/28 11:07:58;;;;;;;3.30;1.10;;;;;;;3.64;46.49;101868.20;1673627;85;21555;-63
2022/02/28 11:10:22;;;;;;;1.95;0.98;;;;;;;3.66;45.85;101870.31;1672615;86;21277;-62
2022/02/28 11:12:53;;;;;;;1.77;1.12;;;;;;;3.66;45.53;101864.03;1673812;86;21634;-62
2022/02/28 11:15:25;;;;;;;7.37;1.05;;;;;;;3.66;45.59;101864.89;1675077;83;21123;-62
2022/02/28 11:17:53;;;;;;;1.62;0.80;;;;;;;3.67;45.29;101856.27;1654582;86;21593;-61
2022/02/28 11:20:22;;;;;;;7.08;1.22;;;;;;;3.67;45.43;101866.63;1730941;83;21210;-61
2022/02/28 11:22:52;;;;;;;3.85;1.32;;;;;;;3.69;45.13;101861.08;1730904;83;21230;-62
2022/02/28 11:25:23;;;;;;;1.70;0.82;;;;;;;3.69;45.18;101870.08;1741416;81;21100;-62
2022/02/28 11:27:54;;;;;;;6.20;1.02;;;;;;;3.70;45.10;101866.88;1774674;81;21250;-61
2022/02/28 11:30:24;;;;;;;1.37;0.90;;;;;;;3.73;45.44;101863.93;1774537;80;21143;-64
2022/02/28 11:33:06;;;;;;;5.12;0.80;;;;;;;3.79;45.10;101862.10;1774456;79;21115;-63
2022/02/28 11:35:49;;;;;;;3.85;1.12;;;;;;;3.83;45.35;101860.88;1774455;81;21139;-62
2022/02/28 11:38:25;;;;;;;2.47;1.00;;;;;;;3.88;45.00;101858.68;1782221;79;21111;-62
2022/02/28 11:40:57;;;;;;;3.55;1.10;;;;;;;3.92;44.78;101852.06;1788513;80;21554;-62
2022/02/28 11:43:30;;;;;;;2.12;1.20;;;;;;;3.93;44.37;101854.29;1788261;80;21143;-62
2022/02/28 11:46:09;;;;;;;1.60;0.80;;;;;;;3.96;44.07;101855.41;1788168;80;21300;-61
2022/02/28 11:48:55;;;;;;;5.60;1.57;;;;;;;3.98;44.36;101855.66;1788345;80;22273;-62
2022/02/28 11:51:34;;;;;;;3.25;1.07;;;;;;;4.00;43.93;101859.11;1788247;80;21174;-62
2022/02/28 11:54:17;;;;;;;3.22;1.10;;;;;;;4.05;43.52;101850.63;1788367;80;21642;-62
2022/02/28 11:56:48;;;;;;;10.88;1.40;;;;;;;4.06;43.48;101855.06;1788199;79;21095;-62